createdAt,value
2022-09-14T00:01:25.915Z,18.66
2022-09-14T00:04:01.337Z,18.58
2022-09-14T00:06:28.813Z,18.35
2022-09-14T00:08:58.088Z,18.53
2022-09-14T00:11:27.432Z,18.54
2022-09-14T00:13:54.838Z,18.58
2022-09-14T00:16:25.249Z,18.44
2022-09-14T00:19:06.308Z,18.51
2022-09-14T00:21:34.885Z,18.46
2022-09-14T00:24:01.496Z,18.47
2022-09-14T00:26:27.948Z,18.50
2022-09-14T00:28:57.666Z,18.47
2022-09-14T00:31:25.753Z,18.52
2022-09-14T00:33:53.368Z,18.43
2022-09-14T00:36:25.268Z,18.34
2022-09-14T00:38:52.133Z,18.35
2022-09-14T00:41:21.965Z,18.35
2022-09-14T00:44:01.678Z,18.33
2022-09-14T00:46:38.652Z,18.28
2022-09-14T00:49:12.976Z,18.37
2022-09-14T00:51:45.488Z,18.28
2022-09-14T00:54:12.150Z,18.27
2022-09-14T00:56:38.541Z,18.31
2022-09-14T00:59:21.922Z,18.13
2022-09-14T01:01:48.985Z,18.19
2022-09-14T01:04:15.438Z,18.18
2022-09-14T01:07:14.735Z,18.15
2022-09-14T01:09:46.646Z,18.08
2022-09-14T01:12:24.745Z,18.05
2022-09-14T01:14:55.103Z,18.15
2022-09-14T01:17:32.132Z,18.12
2022-09-14T01:20:10.997Z,18.10
2022-09-14T01:22:52.718Z,18.09
2022-09-14T01:25:37.533Z,18.06
2022-09-14T01:28:15.046Z,18.02
2022-09-14T01:30:44.108Z,17.84
2022-09-14T01:33:19.307Z,17.99
2022-09-14T01:35:52.713Z,18.05
2022-09-14T01:38:26.523Z,17.96
2022-09-14T01:40:54.469Z,17.97
2022-09-14T01:43:26.763Z,17.98
2022-09-14T01:46:00.919Z,18.02
2022-09-14T01:48:33.593Z,17.98
2022-09-14T01:51:04.468Z,17.99
2022-09-14T01:53:37.735Z,17.94
2022-09-14T01:56:10.946Z,17.97
2022-09-14T01:59:08.904Z,17.69
2022-09-14T02:01:41.120Z,17.80
2022-09-14T02:04:12.135Z,17.84
2022-09-14T02:06:48.140Z,17.88
2022-09-14T02:09:19.702Z,17.91
2022-09-14T02:11:46.887Z,17.86
2022-09-14T02:14:13.327Z,17.82
2022-09-14T02:16:43.437Z,17.83
2022-09-14T02:19:10.455Z,17.82
2022-09-14T02:21:38.302Z,17.75
2022-09-14T02:24:05.493Z,17.60
2022-09-14T02:26:32.791Z,17.61
2022-09-14T02:28:59.401Z,17.74
2022-09-14T02:31:50.209Z,17.77
2022-09-14T02:34:43.058Z,17.74
2022-09-14T02:37:37.284Z,17.69
2022-09-14T02:40:06.800Z,17.70
2022-09-14T02:43:00.235Z,17.63
2022-09-14T02:45:45.148Z,17.65
2022-09-14T02:48:36.633Z,17.21
2022-09-14T02:51:15.298Z,17.34
2022-09-14T02:53:53.575Z,17.28
2022-09-14T02:56:21.182Z,17.47
2022-09-14T02:58:47.842Z,17.57
2022-09-14T03:01:21.488Z,17.57
2022-09-14T03:03:47.944Z,17.60
2022-09-14T03:06:15.088Z,17.52
2022-09-14T03:08:41.935Z,17.60
2022-09-14T03:11:08.605Z,17.62
2022-09-14T03:13:35.751Z,17.63
2022-09-14T03:16:07.118Z,17.61
2022-09-14T03:18:34.739Z,17.59
2022-09-14T03:21:08.508Z,17.62
2022-09-14T03:23:39.432Z,17.60
2022-09-14T03:26:21.208Z,17.55
2022-09-14T03:28:56.326Z,17.48
2022-09-14T03:31:23.580Z,17.48
2022-09-14T03:33:57.782Z,17.47
2022-09-14T03:36:26.676Z,17.50
2022-09-14T03:38:55.657Z,17.45
2022-09-14T03:41:23.141Z,17.48
2022-09-14T03:43:49.852Z,17.48
2022-09-14T03:46:20.455Z,17.45
2022-09-14T03:48:47.421Z,17.45
2022-09-14T03:51:14.615Z,17.48
2022-09-14T03:53:42.897Z,17.44
2022-09-14T03:56:11.680Z,17.31
2022-09-14T03:58:38.614Z,17.37
2022-09-14T04:01:11.297Z,17.33
2022-09-14T04:03:37.786Z,17.29
2022-09-14T04:06:05.386Z,17.23
2022-09-14T04:08:37.179Z,16.65
2022-09-14T04:11:12.955Z,17.16
2022-09-14T04:13:39.725Z,17.26
2022-09-14T04:16:06.367Z,17.09
2022-09-14T04:18:33.303Z,17.19
2022-09-14T04:21:07.889Z,17.26
2022-09-14T04:23:42.269Z,17.09
2022-09-14T04:26:23.924Z,16.94
2022-09-14T04:28:50.368Z,17.16
2022-09-14T04:31:17.026Z,17.18
2022-09-14T04:33:44.234Z,17.26
2022-09-14T04:36:13.550Z,17.18
2022-09-14T04:38:41.448Z,17.27
2022-09-14T04:41:14.040Z,17.19
2022-09-14T04:43:41.243Z,16.94
2022-09-14T04:46:36.377Z,16.84
2022-09-14T04:49:03.161Z,17.03
2022-09-14T04:51:31.351Z,16.98
2022-09-14T04:53:59.363Z,16.99
2022-09-14T04:56:27.381Z,16.59
2022-09-14T04:58:56.707Z,16.89
2022-09-14T05:01:26.115Z,16.94
2022-09-14T05:03:53.748Z,16.95
2022-09-14T05:06:25.455Z,16.96
2022-09-14T05:08:53.587Z,17.05
2022-09-14T05:11:23.089Z,16.89
2022-09-14T05:13:50.880Z,16.65
2022-09-14T05:16:19.737Z,16.83
2022-09-14T05:18:46.831Z,16.40
2022-09-14T05:21:15.717Z,16.51
2022-09-14T05:23:42.547Z,16.53
2022-09-14T05:26:09.545Z,16.43
2022-09-14T05:28:36.593Z,17.08
2022-09-14T05:31:08.279Z,17.23
2022-09-14T05:33:35.018Z,17.21
2022-09-14T05:36:02.997Z,17.21
2022-09-14T05:38:30.908Z,17.27
2022-09-14T05:40:57.715Z,17.38
2022-09-14T05:43:24.943Z,17.28
2022-09-14T05:45:51.927Z,17.37
2022-09-14T05:48:18.469Z,17.43
2022-09-14T05:50:46.252Z,17.47
2022-09-14T05:53:13.058Z,17.49
2022-09-14T05:55:39.509Z,17.44
2022-09-14T05:58:05.984Z,17.53
2022-09-14T06:00:32.462Z,17.59
2022-09-14T06:02:58.853Z,17.56
2022-09-14T06:05:25.650Z,17.67
2022-09-14T06:07:53.620Z,17.67
2022-09-14T06:10:21.019Z,17.70
2022-09-14T06:12:48.805Z,17.61
2022-09-14T06:15:17.497Z,17.80
2022-09-14T06:17:43.952Z,17.74
2022-09-14T06:20:10.961Z,17.52
2022-09-14T06:22:37.401Z,17.48
2022-09-14T06:25:04.120Z,17.14
2022-09-14T06:27:30.507Z,17.41
2022-09-14T06:29:57.052Z,17.39
2022-09-14T06:32:23.524Z,17.72
2022-09-14T06:34:50.033Z,17.59
2022-09-14T06:37:16.494Z,17.83
2022-09-14T06:39:43.090Z,18.06
2022-09-14T06:42:09.562Z,17.94
2022-09-14T06:44:35.964Z,18.08
2022-09-14T06:47:02.413Z,18.03
2022-09-14T06:49:29.013Z,18.34
2022-09-14T06:51:57.407Z,18.12
2022-09-14T06:54:25.410Z,18.14
2022-09-14T06:56:51.922Z,17.90
2022-09-14T06:59:19.165Z,18.16
2022-09-14T07:01:46.326Z,18.04
2022-09-14T07:04:14.252Z,18.23
2022-09-14T07:06:43.377Z,18.33
2022-09-14T07:09:10.215Z,18.57
2022-09-14T07:11:37.262Z,18.72
2022-09-14T07:14:04.083Z,18.89
2022-09-14T07:16:32.127Z,18.27
2022-09-14T07:19:01.896Z,18.50
2022-09-14T07:21:29.317Z,18.69
2022-09-14T07:23:55.818Z,18.52
2022-09-14T07:26:24.995Z,18.59
2022-09-14T07:28:55.476Z,18.39
2022-09-14T07:31:27.623Z,19.05
2022-09-14T07:33:56.324Z,19.32
2022-09-14T07:36:24.884Z,19.07
2022-09-14T07:38:53.341Z,19.36
2022-09-14T07:41:25.339Z,19.37
2022-09-14T07:43:53.945Z,19.59
2022-09-14T07:46:21.537Z,19.62
2022-09-14T07:48:49.085Z,19.45
2022-09-14T07:51:15.927Z,19.59
2022-09-14T07:53:43.585Z,19.80
2022-09-14T07:56:11.862Z,19.59
2022-09-14T07:58:38.951Z,19.88
2022-09-14T08:01:11.915Z,20.07
2022-09-14T08:03:43.414Z,20.03
2022-09-14T08:06:10.684Z,20.04
2022-09-14T08:08:39.508Z,19.89
2022-09-14T08:11:11.216Z,19.80
2022-09-14T08:13:39.987Z,20.09
2022-09-14T08:16:06.962Z,20.11
2022-09-14T08:18:35.215Z,19.87
2022-09-14T08:21:13.268Z,20.29
2022-09-14T08:23:40.791Z,19.84
2022-09-14T08:26:09.776Z,19.61
2022-09-14T08:28:36.496Z,19.97
2022-09-14T08:31:08.935Z,20.06
2022-09-14T08:33:37.738Z,20.23
2022-09-14T08:36:06.290Z,20.28
2022-09-14T08:38:32.822Z,20.56
2022-09-14T08:41:09.632Z,19.92
2022-09-14T08:43:38.730Z,20.11
2022-09-14T08:46:11.253Z,19.58
2022-09-14T08:48:45.509Z,20.11
2022-09-14T08:51:12.025Z,19.56
2022-09-14T08:53:40.795Z,20.01
2022-09-14T08:56:18.409Z,20.57
2022-09-14T08:59:11.144Z,20.93
2022-09-14T09:01:37.509Z,21.19
2022-09-14T09:04:21.929Z,21.01
2022-09-14T09:07:13.049Z,21.43
2022-09-14T09:09:47.373Z,20.20
2022-09-14T09:12:29.852Z,20.77
2022-09-14T09:15:17.302Z,21.02
2022-09-14T09:17:48.386Z,21.55
2022-09-14T09:20:26.859Z,21.92
2022-09-14T09:23:28.168Z,22.20
2022-09-14T09:26:03.736Z,21.93
2022-09-14T09:28:30.901Z,22.35
2022-09-14T09:31:05.144Z,22.46
2022-09-14T09:33:32.025Z,22.52
2022-09-14T09:35:59.474Z,22.56
2022-09-14T09:38:28.592Z,22.08
2022-09-14T09:41:05.862Z,21.69
2022-09-14T09:43:49.288Z,21.50
2022-09-14T09:46:17.219Z,22.70
2022-09-14T09:48:45.570Z,22.84
2022-09-14T09:51:24.275Z,21.84
2022-09-14T09:53:54.130Z,23.34
2022-09-14T09:56:24.041Z,22.51
2022-09-14T09:58:52.058Z,23.26
2022-09-14T10:01:35.758Z,22.93
2022-09-14T10:04:25.456Z,23.37
2022-09-14T10:06:55.874Z,23.03
2022-09-14T10:09:26.976Z,23.20
2022-09-14T10:12:04.922Z,23.98
2022-09-14T10:14:34.380Z,23.89
2022-09-14T10:17:22.038Z,23.94
2022-09-14T10:19:52.276Z,22.96
2022-09-14T10:22:26.750Z,23.72
2022-09-14T10:25:13.235Z,22.97
2022-09-14T10:28:00.407Z,21.99
2022-09-14T10:31:11.676Z,23.48
2022-09-14T10:33:38.727Z,22.12
2022-09-14T10:36:19.251Z,23.02
2022-09-14T10:38:55.106Z,23.41
2022-09-14T10:41:27.143Z,23.02
2022-09-14T10:43:53.519Z,23.45
2022-09-14T10:46:30.725Z,23.46
2022-09-14T10:49:37.948Z,23.29
2022-09-14T10:52:43.555Z,23.58
2022-09-14T10:55:24.468Z,22.44
2022-09-14T10:58:24.661Z,23.25
2022-09-14T11:01:08.684Z,23.33
2022-09-14T11:03:53.176Z,23.24
2022-09-14T11:06:38.012Z,23.02
2022-09-14T11:09:20.364Z,23.19
2022-09-14T11:12:08.644Z,22.97
2022-09-14T11:14:53.637Z,23.26
2022-09-14T11:17:26.104Z,23.23
2022-09-14T11:20:21.009Z,23.23
2022-09-14T11:22:47.362Z,22.53
2022-09-14T11:25:36.378Z,23.28
2022-09-14T11:28:14.124Z,22.05
2022-09-14T11:30:50.774Z,23.07
2022-09-14T11:33:31.369Z,23.42
2022-09-14T11:36:07.277Z,22.32
2022-09-14T11:38:48.137Z,21.27
2022-09-14T11:41:24.105Z,21.92
2022-09-14T11:44:02.659Z,22.28
2022-09-14T11:46:45.059Z,22.54
2022-09-14T11:49:55.129Z,22.97
2022-09-14T11:52:24.570Z,23.25
2022-09-14T11:54:52.238Z,22.70
2022-09-14T11:57:23.034Z,23.38
2022-09-14T12:00:23.774Z,23.22
2022-09-14T12:03:02.473Z,23.34
2022-09-14T12:05:32.488Z,23.16
2022-09-14T12:08:04.522Z,22.75
2022-09-14T12:10:31.153Z,22.91
2022-09-14T12:13:06.480Z,23.04
2022-09-14T12:15:43.428Z,22.83
2022-09-14T12:18:09.998Z,22.83
2022-09-14T12:20:52.761Z,23.25
2022-09-14T12:23:37.224Z,23.37
2022-09-14T12:26:06.691Z,23.28
2022-09-14T12:28:50.265Z,23.37
2022-09-14T12:31:32.892Z,23.28
2022-09-14T12:34:23.765Z,22.99
2022-09-14T12:36:50.117Z,22.97
2022-09-14T12:39:24.154Z,22.62
2022-09-14T12:41:50.503Z,22.46
2022-09-14T12:44:39.949Z,22.91
2022-09-14T12:47:24.830Z,22.52
2022-09-14T12:49:57.681Z,22.35
2022-09-14T12:52:32.382Z,22.26
2022-09-14T12:55:28.035Z,22.56
2022-09-14T12:58:00.087Z,23.11
2022-09-14T13:00:29.846Z,23.05
2022-09-14T13:03:23.600Z,23.17
2022-09-14T13:05:50.962Z,23.15
2022-09-14T13:08:23.341Z,22.85
2022-09-14T13:10:51.835Z,23.14
2022-09-14T13:13:22.121Z,23.11
2022-09-14T13:15:58.526Z,23.09
2022-09-14T13:18:34.977Z,23.13
2022-09-14T13:21:14.369Z,22.66
2022-09-14T13:23:42.348Z,22.97
2022-09-14T13:26:16.813Z,22.67
2022-09-14T13:28:45.853Z,22.92
2022-09-14T13:31:16.812Z,22.81
2022-09-14T13:33:48.902Z,22.83
2022-09-14T13:36:18.873Z,22.64
2022-09-14T13:38:45.766Z,21.88
2022-09-14T13:41:22.156Z,22.59
2022-09-14T13:43:51.071Z,22.32
2022-09-14T13:46:20.450Z,21.66
2022-09-14T13:48:47.700Z,22.47
2022-09-14T13:51:15.293Z,22.78
2022-09-14T13:53:49.988Z,22.65
2022-09-14T13:56:25.103Z,22.32
2022-09-14T13:59:13.951Z,22.46
2022-09-14T14:01:46.558Z,22.72
2022-09-14T14:04:36.882Z,22.24
2022-09-14T14:07:12.268Z,22.48
2022-09-14T14:09:50.604Z,22.71
2022-09-14T14:12:27.678Z,21.90
2022-09-14T14:15:01.626Z,21.78
2022-09-14T14:17:27.993Z,22.10
2022-09-14T14:20:00.270Z,22.44
2022-09-14T14:22:33.191Z,22.43
2022-09-14T14:25:15.773Z,22.38
2022-09-14T14:27:44.773Z,22.46
2022-09-14T14:30:17.927Z,22.78
2022-09-14T14:32:48.927Z,22.75
2022-09-14T14:35:17.817Z,22.79
2022-09-14T14:37:44.257Z,22.41
2022-09-14T14:40:13.707Z,21.90
2022-09-14T14:42:41.054Z,22.26
2022-09-14T14:45:14.402Z,22.29
2022-09-14T14:47:41.088Z,22.75
2022-09-14T14:50:16.590Z,22.71
2022-09-14T14:52:43.173Z,22.93
2022-09-14T14:55:10.548Z,22.84
2022-09-14T14:57:38.887Z,22.93
2022-09-14T15:00:15.491Z,22.82
2022-09-14T15:02:42.567Z,22.81
2022-09-14T15:05:10.017Z,22.65
2022-09-14T15:07:37.863Z,22.79
2022-09-14T15:10:05.625Z,22.87
2022-09-14T15:12:32.472Z,22.87
2022-09-14T15:14:59.034Z,22.80
2022-09-14T15:17:25.637Z,22.92
2022-09-14T15:19:52.563Z,22.85
2022-09-14T15:22:19.078Z,22.87
2022-09-14T15:24:45.555Z,22.73
2022-09-14T15:27:12.026Z,22.82
2022-09-14T15:29:38.410Z,22.77
2022-09-14T15:32:05.144Z,22.40
2022-09-14T15:34:31.587Z,22.67
2022-09-14T15:36:58.870Z,22.65
2022-09-14T15:39:27.972Z,22.42
2022-09-14T15:41:55.669Z,22.52
2022-09-14T15:44:22.837Z,22.62
2022-09-14T15:46:49.700Z,22.55
2022-09-14T15:49:19.507Z,22.51
2022-09-14T15:51:50.346Z,22.59
2022-09-14T15:54:24.455Z,22.63
2022-09-14T15:56:54.402Z,22.49
2022-09-14T15:59:22.143Z,21.93
2022-09-14T16:01:49.207Z,22.16
2022-09-14T16:04:16.275Z,22.39
2022-09-14T16:06:42.657Z,22.28
2022-09-14T16:09:10.736Z,22.02
2022-09-14T16:11:38.640Z,22.19
2022-09-14T16:14:06.814Z,22.27
2022-09-14T16:16:35.011Z,22.33
2022-09-14T16:19:06.095Z,22.34
2022-09-14T16:21:32.903Z,21.38
2022-09-14T16:24:01.769Z,21.59
2022-09-14T16:26:32.236Z,22.12
2022-09-14T16:28:59.245Z,22.26
2022-09-14T16:31:35.295Z,22.09
2022-09-14T16:34:08.057Z,22.12
2022-09-14T16:36:37.128Z,22.04
2022-09-14T16:39:06.349Z,22.18
2022-09-14T16:41:32.892Z,22.15
2022-09-14T16:44:01.644Z,22.14
2022-09-14T16:46:30.086Z,21.16
2022-09-14T16:48:58.580Z,21.81
2022-09-14T16:51:27.242Z,21.54
2022-09-14T16:53:53.907Z,21.20
2022-09-14T16:56:23.019Z,21.71
2022-09-14T16:58:51.775Z,21.48
2022-09-14T17:01:25.763Z,20.97
2022-09-14T17:03:53.804Z,21.50
2022-09-14T17:06:22.604Z,21.37
2022-09-14T17:08:49.822Z,21.44
2022-09-14T17:11:16.981Z,21.38
2022-09-14T17:13:44.430Z,21.20
2022-09-14T17:16:13.913Z,21.45
2022-09-14T17:18:41.871Z,21.50
2022-09-14T17:21:11.162Z,21.29
2022-09-14T17:23:37.729Z,21.18
2022-09-14T17:26:06.079Z,21.17
2022-09-14T17:28:34.841Z,21.10
2022-09-14T17:31:02.796Z,21.05
2022-09-14T17:33:30.023Z,20.66
2022-09-14T17:35:58.418Z,21.15
2022-09-14T17:38:27.605Z,21.15
2022-09-14T17:41:04.838Z,21.17
2022-09-14T17:43:32.568Z,21.17
2022-09-14T17:45:59.455Z,20.98
2022-09-14T17:48:27.724Z,21.05
2022-09-14T17:50:54.987Z,21.03
2022-09-14T17:53:21.450Z,21.08
2022-09-14T17:55:48.169Z,20.85
2022-09-14T17:58:19.436Z,20.96
2022-09-14T18:00:46.272Z,20.91
2022-09-14T18:03:12.897Z,20.97
2022-09-14T18:05:39.377Z,20.84
2022-09-14T18:08:05.816Z,20.67
2022-09-14T18:10:32.230Z,20.74
2022-09-14T18:12:58.639Z,20.79
2022-09-14T18:15:25.093Z,20.66
2022-09-14T18:17:52.289Z,20.63
2022-09-14T18:20:18.810Z,20.76
2022-09-14T18:22:45.213Z,20.61
2022-09-14T18:25:11.619Z,20.66
2022-09-14T18:27:38.039Z,20.61
2022-09-14T18:30:05.059Z,20.61
2022-09-14T18:32:31.429Z,20.63
2022-09-14T18:34:57.883Z,20.60
2022-09-14T18:37:24.314Z,20.63
2022-09-14T18:39:50.819Z,20.51
2022-09-14T18:42:17.251Z,20.50
2022-09-14T18:44:43.811Z,20.46
2022-09-14T18:47:10.184Z,20.52
2022-09-14T18:49:36.596Z,20.50
2022-09-14T18:52:03.086Z,20.46
2022-09-14T18:54:29.996Z,20.48
2022-09-14T18:56:56.401Z,20.11
2022-09-14T18:59:22.856Z,20.32
2022-09-14T19:01:49.271Z,20.28
2022-09-14T19:04:15.841Z,20.11
2022-09-14T19:06:44.306Z,20.18
2022-09-14T19:09:11.019Z,20.19
2022-09-14T19:11:37.504Z,20.21
2022-09-14T19:14:09.871Z,20.21
2022-09-14T19:16:39.018Z,19.87
2022-09-14T19:19:06.685Z,20.06
2022-09-14T19:21:33.435Z,20.06
2022-09-14T19:24:00.874Z,20.08
2022-09-14T19:26:32.891Z,19.98
2022-09-14T19:29:01.016Z,20.00
2022-09-14T19:31:30.347Z,19.94
2022-09-14T19:33:58.472Z,19.85
2022-09-14T19:36:25.188Z,19.81
2022-09-14T19:38:53.495Z,19.87
2022-09-14T19:41:21.699Z,19.87
2022-09-14T19:43:48.309Z,19.92
2022-09-14T19:46:18.246Z,19.90
2022-09-14T19:48:46.109Z,19.89
2022-09-14T19:51:15.499Z,19.89
2022-09-14T19:53:42.726Z,19.82
2022-09-14T19:56:12.626Z,19.67
2022-09-14T19:58:46.858Z,19.71
2022-09-14T20:01:15.127Z,19.69
2022-09-14T20:03:43.192Z,19.42
2022-09-14T20:06:19.020Z,19.60
2022-09-14T20:08:46.833Z,19.61
2022-09-14T20:11:19.194Z,19.58
2022-09-14T20:13:48.634Z,19.64
2022-09-14T20:16:17.732Z,19.61
2022-09-14T20:18:45.518Z,19.55
2022-09-14T20:21:16.087Z,19.55
2022-09-14T20:23:58.258Z,19.31
2022-09-14T20:26:30.307Z,19.52
2022-09-14T20:28:59.866Z,19.57
2022-09-14T20:31:26.961Z,19.53
2022-09-14T20:33:53.380Z,19.52
2022-09-14T20:36:21.544Z,19.30
2022-09-14T20:38:54.383Z,19.46
2022-09-14T20:41:23.343Z,19.41
2022-09-14T20:43:50.050Z,19.45
2022-09-14T20:46:19.933Z,19.43
2022-09-14T20:48:48.095Z,19.32
2022-09-14T20:51:19.950Z,19.40
2022-09-14T20:53:47.620Z,19.32
2022-09-14T20:56:17.550Z,19.33
2022-09-14T20:58:44.568Z,19.25
2022-09-14T21:01:22.692Z,19.30
2022-09-14T21:03:50.368Z,19.20
2022-09-14T21:06:24.623Z,19.20
2022-09-14T21:08:51.513Z,19.20
2022-09-14T21:11:21.808Z,19.18
2022-09-14T21:13:49.412Z,19.17
2022-09-14T21:16:18.486Z,19.12
2022-09-14T21:18:47.005Z,19.11
2022-09-14T21:21:15.765Z,19.05
2022-09-14T21:23:42.989Z,19.07
2022-09-14T21:26:11.159Z,19.00
2022-09-14T21:28:39.729Z,19.03
2022-09-14T21:31:16.085Z,18.92
2022-09-14T21:33:44.591Z,18.97
2022-09-14T21:36:17.629Z,19.01
2022-09-14T21:38:51.118Z,18.61
2022-09-14T21:41:18.867Z,18.51
2022-09-14T21:43:45.755Z,18.76
2022-09-14T21:46:12.197Z,18.82
2022-09-14T21:48:39.016Z,18.83
2022-09-14T21:51:17.320Z,18.63
2022-09-14T21:53:49.562Z,18.41
2022-09-14T21:56:17.356Z,18.59
2022-09-14T21:58:44.028Z,18.60
2022-09-14T22:01:11.948Z,18.70
2022-09-14T22:03:38.922Z,18.71
2022-09-14T22:06:07.818Z,18.56
2022-09-14T22:08:35.375Z,18.62
2022-09-14T22:11:14.448Z,18.65
2022-09-14T22:13:41.761Z,18.53
2022-09-14T22:16:13.792Z,18.63
2022-09-14T22:18:48.818Z,18.63
2022-09-14T22:21:16.194Z,18.57
2022-09-14T22:23:43.142Z,18.57
2022-09-14T22:26:11.935Z,18.62
2022-09-14T22:28:40.747Z,18.48
2022-09-14T22:31:08.511Z,18.60
2022-09-14T22:33:35.375Z,18.58
2022-09-14T22:36:03.754Z,18.55
2022-09-14T22:38:33.542Z,18.60
2022-09-14T22:41:05.017Z,18.57
2022-09-14T22:43:32.897Z,18.61
2022-09-14T22:45:59.755Z,18.62
2022-09-14T22:48:26.484Z,18.60
2022-09-14T22:50:55.515Z,18.64
2022-09-14T22:53:23.414Z,18.59
2022-09-14T22:55:50.768Z,18.59
2022-09-14T22:58:19.250Z,18.62
2022-09-14T23:00:46.549Z,18.60
2022-09-14T23:03:14.594Z,18.54
2022-09-14T23:05:48.936Z,18.57
2022-09-14T23:08:15.927Z,18.49
2022-09-14T23:10:42.402Z,18.49
2022-09-14T23:13:08.753Z,18.42
2022-09-14T23:15:39.419Z,18.45
2022-09-14T23:18:06.456Z,18.41
2022-09-14T23:20:39.677Z,18.34
2022-09-14T23:23:06.599Z,18.38
2022-09-14T23:25:45.123Z,18.32
2022-09-14T23:28:12.545Z,18.22
2022-09-14T23:30:39.658Z,18.10
2022-09-14T23:33:06.625Z,18.17
2022-09-14T23:35:37.470Z,18.17
2022-09-14T23:38:04.195Z,18.16
2022-09-14T23:40:30.632Z,18.13
2022-09-14T23:42:57.179Z,18.11
2022-09-14T23:45:23.571Z,18.14
2022-09-14T23:47:49.990Z,18.01
2022-09-14T23:50:16.547Z,18.01
2022-09-14T23:52:42.932Z,18.05
2022-09-14T23:55:09.487Z,17.97
2022-09-14T23:57:36.637Z,17.90
